createdAt,value
2023-03-02T00:05:14.572Z,10.73
2023-03-02T00:13:20.131Z,15.68
2023-03-02T00:21:28.280Z,13.45
2023-03-02T00:29:33.650Z,12.98
2023-03-02T00:37:41.884Z,15.40
2023-03-02T00:45:48.029Z,17.88
2023-03-02T00:53:56.037Z,16.77
2023-03-02T01:02:02.865Z,14.35
2023-03-02T01:10:14.468Z,12.82
2023-03-02T01:18:20.884Z,16.52
2023-03-02T01:26:29.184Z,11.77
2023-03-02T01:34:34.830Z,12.00
2023-03-02T01:42:50.103Z,15.70
2023-03-02T01:50:56.191Z,11.93
2023-03-02T01:59:08.564Z,17.83
2023-03-02T02:07:14.319Z,14.77
2023-03-02T02:15:24.224Z,19.40
2023-03-02T02:23:32.927Z,15.00
2023-03-02T02:31:46.105Z,14.70
2023-03-02T02:39:53.873Z,10.53
2023-03-02T02:48:03.023Z,14.73
2023-03-02T02:56:10.974Z,14.60
2023-03-02T03:04:23.596Z,12.65
2023-03-02T03:12:31.680Z,14.82
2023-03-02T03:20:41.338Z,13.48
2023-03-02T03:28:46.937Z,11.88
2023-03-02T03:36:55.382Z,13.63
2023-03-02T03:45:01.349Z,12.25
2023-03-02T03:53:09.796Z,13.02
2023-03-02T04:01:15.414Z,15.25
2023-03-02T04:09:24.213Z,14.15
2023-03-02T04:17:31.311Z,13.32
2023-03-02T04:25:39.665Z,13.63
2023-03-02T04:33:50.734Z,14.52
2023-03-02T04:41:59.102Z,13.45
2023-03-02T04:50:04.659Z,17.13
2023-03-02T04:58:12.909Z,20.17
2023-03-02T05:06:19.139Z,13.02
2023-03-02T05:14:28.183Z,25.33
2023-03-02T05:22:33.558Z,19.25
2023-03-02T05:30:41.799Z,20.15
2023-03-02T05:38:47.474Z,21.55
2023-03-02T05:46:55.508Z,20.85
2023-03-02T05:55:00.829Z,15.20
2023-03-02T06:03:09.141Z,19.67
2023-03-02T06:11:15.647Z,16.42
2023-03-02T06:19:23.832Z,14.13
2023-03-02T06:27:29.603Z,20.25
2023-03-02T06:35:37.995Z,17.58
2023-03-02T06:43:43.532Z,25.52
2023-03-02T06:51:51.613Z,31.98
2023-03-02T06:59:57.013Z,20.50
2023-03-02T07:08:05.191Z,23.20
2023-03-02T07:16:12.247Z,13.63
2023-03-02T07:24:22.548Z,16.15
2023-03-02T07:32:28.370Z,11.35
2023-03-02T07:40:38.050Z,17.55
2023-03-02T07:48:43.551Z,13.73
2023-03-02T07:56:52.122Z,16.90
2023-03-02T08:04:57.524Z,15.75
2023-03-02T08:13:07.457Z,14.07
2023-03-02T08:21:18.630Z,17.60
2023-03-02T08:29:27.154Z,15.65
2023-03-02T08:37:32.672Z,18.48
2023-03-02T08:45:40.911Z,15.85
2023-03-02T08:53:50.661Z,16.48
2023-03-02T09:01:58.732Z,11.73
2023-03-02T09:10:04.197Z,12.80
2023-03-02T09:18:12.416Z,12.27
2023-03-02T09:26:17.902Z,10.20
2023-03-02T09:34:26.962Z,11.65
2023-03-02T09:42:58.893Z,12.95
2023-03-02T09:51:20.516Z,7.57
2023-03-02T09:59:30.474Z,12.75
2023-03-02T10:07:40.993Z,10.60
2023-03-02T10:15:58.337Z,9.05
2023-03-02T10:24:13.744Z,12.38
2023-03-02T10:32:23.852Z,14.85
2023-03-02T10:40:42.526Z,15.65
2023-03-02T10:48:52.288Z,15.35
2023-03-02T10:57:02.500Z,18.20
2023-03-02T11:05:26.867Z,16.13
2023-03-02T11:13:37.598Z,17.08
2023-03-02T11:21:46.844Z,16.50
2023-03-02T11:30:00.656Z,17.23
2023-03-02T11:38:18.976Z,24.00
2023-03-02T11:46:30.803Z,14.68
2023-03-02T11:54:44.319Z,15.82
2023-03-02T12:03:05.672Z,16.17
2023-03-02T12:11:31.288Z,14.05
2023-03-02T12:19:46.600Z,12.70
2023-03-02T12:27:54.375Z,13.77
2023-03-02T12:36:16.289Z,12.68
2023-03-02T12:44:38.942Z,15.27
2023-03-02T12:53:02.358Z,12.00
2023-03-02T13:01:08.581Z,12.93
2023-03-02T13:09:20.443Z,14.82
2023-03-02T13:17:29.716Z,13.38
2023-03-02T13:25:39.729Z,17.45
2023-03-02T13:33:49.560Z,14.27
2023-03-02T13:42:02.022Z,15.20
2023-03-02T13:50:10.609Z,14.63
2023-03-02T13:58:44.591Z,10.90
2023-03-02T14:07:01.629Z,14.02
2023-03-02T14:15:16.688Z,13.32
2023-03-02T14:23:23.305Z,11.57
2023-03-02T14:31:31.761Z,16.05
2023-03-02T14:39:43.232Z,14.75
2023-03-02T14:47:51.550Z,17.42
2023-03-02T14:55:57.163Z,16.23
2023-03-02T15:04:05.310Z,13.38
2023-03-02T15:12:11.351Z,14.60
2023-03-02T15:20:20.318Z,14.07
2023-03-02T15:28:25.773Z,16.15
2023-03-02T15:36:35.498Z,15.88
2023-03-02T15:44:40.965Z,21.83
2023-03-02T15:52:49.555Z,23.33
2023-03-02T16:00:59.078Z,22.25
2023-03-02T16:09:08.088Z,21.25
2023-03-02T16:17:13.717Z,21.10
2023-03-02T16:25:21.821Z,18.92
2023-03-02T16:33:27.432Z,20.38
2023-03-02T16:41:36.305Z,20.60
2023-03-02T16:49:41.832Z,17.38
2023-03-02T16:57:50.723Z,23.23
2023-03-02T17:06:01.518Z,24.50
2023-03-02T17:14:09.601Z,26.05
2023-03-02T17:22:15.616Z,21.92
2023-03-02T17:30:24.573Z,24.33
2023-03-02T17:38:30.284Z,27.80
2023-03-02T17:46:38.392Z,36.13
2023-03-02T17:54:44.263Z,26.98
2023-03-02T18:02:53.481Z,30.58
2023-03-02T18:11:02.245Z,34.38
2023-03-02T18:19:10.598Z,33.78
2023-03-02T18:27:16.645Z,30.80
2023-03-02T18:35:25.162Z,28.77
2023-03-02T18:43:32.098Z,26.35
2023-03-02T18:51:40.881Z,29.55
2023-03-02T18:59:46.583Z,29.33
2023-03-02T19:07:55.654Z,32.58
2023-03-02T19:16:02.252Z,39.97
2023-03-02T19:24:15.280Z,30.80
2023-03-02T19:32:21.317Z,34.38
2023-03-02T19:40:30.814Z,38.92
2023-03-02T19:48:37.134Z,31.75
2023-03-02T19:56:54.041Z,28.42
2023-03-02T20:04:59.617Z,30.00
2023-03-02T20:13:08.108Z,27.92
2023-03-02T20:21:13.672Z,29.55
2023-03-02T20:29:24.020Z,30.05
2023-03-02T20:37:30.410Z,33.28
2023-03-02T20:45:38.781Z,38.10
2023-03-02T20:53:47.408Z,37.60
2023-03-02T21:01:56.660Z,32.60
2023-03-02T21:10:02.340Z,33.03
2023-03-02T21:18:10.725Z,34.97
2023-03-02T21:26:17.800Z,32.88
2023-03-02T21:34:26.064Z,28.48
2023-03-02T21:42:31.769Z,31.25
2023-03-02T21:50:41.710Z,27.65
2023-03-02T21:58:47.512Z,29.45
2023-03-02T22:06:55.486Z,30.90
2023-03-02T22:15:04.387Z,34.70
2023-03-02T22:23:17.096Z,35.63
2023-03-02T22:31:24.510Z,39.67
2023-03-02T22:39:35.980Z,41.58
2023-03-02T22:47:42.366Z,37.95
2023-03-02T22:55:51.589Z,32.00
2023-03-02T23:04:03.860Z,34.65
2023-03-02T23:12:21.034Z,32.97
2023-03-02T23:20:27.110Z,32.90
2023-03-02T23:28:35.447Z,31.88
2023-03-02T23:36:40.886Z,32.15
2023-03-02T23:44:48.985Z,32.22
2023-03-02T23:52:54.650Z,34.20
